createdAt,value
2022-09-01T00:02:20.060Z,18.40
2022-09-01T00:04:47.608Z,18.37
2022-09-01T00:07:15.051Z,18.35
2022-09-01T00:09:41.835Z,18.24
2022-09-01T00:12:09.578Z,18.25
2022-09-01T00:14:41.529Z,18.23
2022-09-01T00:17:10.487Z,18.27
2022-09-01T00:19:37.627Z,18.28
2022-09-01T00:22:04.507Z,18.26
2022-09-01T00:24:31.518Z,18.24
2022-09-01T00:27:03.906Z,18.25
2022-09-01T00:29:32.023Z,18.22
2022-09-01T00:31:58.689Z,18.25
2022-09-01T00:34:25.495Z,18.23
2022-09-01T00:36:52.235Z,18.23
2022-09-01T00:39:19.059Z,18.24
2022-09-01T00:41:47.313Z,18.22
2022-09-01T00:44:23.231Z,18.10
2022-09-01T00:46:55.157Z,18.06
2022-09-01T00:49:31.363Z,18.05
2022-09-01T00:52:05.035Z,18.02
2022-09-01T00:54:35.257Z,18.00
2022-09-01T00:57:03.659Z,17.88
2022-09-01T00:59:30.684Z,17.91
2022-09-01T01:01:58.196Z,17.91
2022-09-01T01:04:25.721Z,17.91
2022-09-01T01:07:02.894Z,17.87
2022-09-01T01:09:33.698Z,17.79
2022-09-01T01:12:03.749Z,17.86
2022-09-01T01:14:32.398Z,17.87
2022-09-01T01:17:00.668Z,17.90
2022-09-01T01:20:02.715Z,17.97
2022-09-01T01:22:51.110Z,17.99
2022-09-01T01:25:19.057Z,17.97
2022-09-01T01:27:46.222Z,17.95
2022-09-01T01:30:14.922Z,17.93
2022-09-01T01:32:43.253Z,17.93
2022-09-01T01:35:14.709Z,17.89
2022-09-01T01:37:46.589Z,17.87
2022-09-01T01:40:17.691Z,17.84
2022-09-01T01:42:46.558Z,17.81
2022-09-01T01:45:17.267Z,17.80
2022-09-01T01:47:50.327Z,17.77
2022-09-01T01:50:18.155Z,17.74
2022-09-01T01:52:45.771Z,17.73
2022-09-01T01:55:13.274Z,17.70
2022-09-01T01:57:51.249Z,17.68
2022-09-01T02:00:30.062Z,17.67
2022-09-01T02:02:58.779Z,17.67
2022-09-01T02:05:32.266Z,17.63
2022-09-01T02:08:06.703Z,17.59
2022-09-01T02:10:42.175Z,17.60
2022-09-01T02:13:11.980Z,17.57
2022-09-01T02:15:44.439Z,17.54
2022-09-01T02:18:14.181Z,17.49
2022-09-01T02:20:41.958Z,17.49
2022-09-01T02:23:10.657Z,17.31
2022-09-01T02:26:05.130Z,17.32
2022-09-01T02:28:35.015Z,17.21
2022-09-01T02:31:04.970Z,17.10
2022-09-01T02:33:32.679Z,17.18
2022-09-01T02:36:02.254Z,17.21
2022-09-01T02:38:29.868Z,17.27
2022-09-01T02:40:58.510Z,17.27
2022-09-01T02:43:28.450Z,17.19
2022-09-01T02:45:59.851Z,17.20
2022-09-01T02:48:35.869Z,17.22
2022-09-01T02:51:06.119Z,17.19
2022-09-01T02:53:36.418Z,17.20
2022-09-01T02:56:09.476Z,17.14
2022-09-01T02:58:45.875Z,17.10
2022-09-01T03:01:26.261Z,17.13
2022-09-01T03:04:01.174Z,17.07
2022-09-01T03:06:28.697Z,17.07
2022-09-01T03:08:59.630Z,17.09
2022-09-01T03:11:28.190Z,17.10
2022-09-01T03:13:55.414Z,17.10
2022-09-01T03:16:22.777Z,17.07
2022-09-01T03:18:50.714Z,17.02
2022-09-01T03:21:18.695Z,17.00
2022-09-01T03:23:46.532Z,16.97
2022-09-01T03:26:15.022Z,16.94
2022-09-01T03:28:41.889Z,16.95
2022-09-01T03:31:09.189Z,16.95
2022-09-01T03:33:36.910Z,16.95
2022-09-01T03:36:15.460Z,16.95
2022-09-01T03:38:44.060Z,16.95
2022-09-01T03:41:13.323Z,16.93
2022-09-01T03:43:47.124Z,16.88
2022-09-01T03:46:21.800Z,16.89
2022-09-01T03:48:52.834Z,16.88
2022-09-01T03:51:22.820Z,16.80
2022-09-01T03:53:54.569Z,16.75
2022-09-01T03:56:24.754Z,16.69
2022-09-01T03:58:52.160Z,16.69
2022-09-01T04:01:19.823Z,16.73
2022-09-01T04:03:49.426Z,16.72
2022-09-01T04:06:21.999Z,16.68
2022-09-01T04:08:48.840Z,16.68
2022-09-01T04:11:23.563Z,16.70
2022-09-01T04:13:52.728Z,16.73
2022-09-01T04:16:41.684Z,16.68
2022-09-01T04:19:20.139Z,16.63
2022-09-01T04:21:50.245Z,16.62
2022-09-01T04:24:19.127Z,16.60
2022-09-01T04:26:48.916Z,16.58
2022-09-01T04:29:24.172Z,16.55
2022-09-01T04:31:53.667Z,16.56
2022-09-01T04:34:24.176Z,16.55
2022-09-01T04:36:54.488Z,16.53
2022-09-01T04:39:22.654Z,16.49
2022-09-01T04:41:50.609Z,16.45
2022-09-01T04:44:19.178Z,16.47
2022-09-01T04:46:48.369Z,16.48
2022-09-01T04:49:19.702Z,16.47
2022-09-01T04:51:53.364Z,16.44
2022-09-01T04:54:23.010Z,16.37
2022-09-01T04:56:52.429Z,16.37
2022-09-01T04:59:21.887Z,16.35
2022-09-01T05:01:57.539Z,16.36
2022-09-01T05:04:27.815Z,16.39
2022-09-01T05:07:01.299Z,16.43
2022-09-01T05:09:37.414Z,16.52
2022-09-01T05:12:15.950Z,16.55
2022-09-01T05:14:48.958Z,16.54
2022-09-01T05:17:21.670Z,16.57
2022-09-01T05:19:51.187Z,16.59
2022-09-01T05:22:22.389Z,16.62
2022-09-01T05:25:13.353Z,16.63
2022-09-01T05:27:49.737Z,16.66
2022-09-01T05:30:18.932Z,16.74
2022-09-01T05:32:49.032Z,16.82
2022-09-01T05:35:17.269Z,16.87
2022-09-01T05:37:44.575Z,16.92
2022-09-01T05:40:16.340Z,16.94
2022-09-01T05:42:45.345Z,17.00
2022-09-01T05:45:12.225Z,17.09
2022-09-01T05:47:40.119Z,17.17
2022-09-01T05:50:14.243Z,17.29
2022-09-01T05:52:44.727Z,17.43
2022-09-01T05:55:12.048Z,17.53
2022-09-01T05:57:42.023Z,17.64
2022-09-01T06:00:13.573Z,17.71
2022-09-01T06:02:42.859Z,17.77
2022-09-01T06:05:15.851Z,17.87
2022-09-01T06:07:44.329Z,17.93
2022-09-01T06:10:14.482Z,17.99
2022-09-01T06:12:43.341Z,18.05
2022-09-01T06:15:15.920Z,18.13
2022-09-01T06:17:47.282Z,18.22
2022-09-01T06:20:14.641Z,18.35
2022-09-01T06:22:44.820Z,18.48
2022-09-01T06:25:11.851Z,18.58
2022-09-01T06:27:44.671Z,18.77
2022-09-01T06:30:23.703Z,18.83
2022-09-01T06:33:10.572Z,18.92
2022-09-01T06:35:42.067Z,18.99
2022-09-01T06:38:11.090Z,19.06
2022-09-01T06:40:42.436Z,19.05
2022-09-01T06:43:12.533Z,19.09
2022-09-01T06:45:49.903Z,19.17
2022-09-01T06:48:17.900Z,19.30
2022-09-01T06:53:35.253Z,19.51
2022-09-01T06:56:04.937Z,19.60
2022-09-01T06:58:33.346Z,19.68
2022-09-01T07:01:06.769Z,19.76
2022-09-01T07:03:34.143Z,19.85
2022-09-01T07:09:20.945Z,19.92
2022-09-01T07:12:26.752Z,19.91
2022-09-01T07:17:49.103Z,19.97
2022-09-01T07:20:24.541Z,20.05
2022-09-01T07:23:09.208Z,20.22
2022-09-01T07:26:02.338Z,20.36
2022-09-01T07:28:36.904Z,20.50
2022-09-01T07:34:38.499Z,20.66
2022-09-01T07:39:48.411Z,20.89
2022-09-01T07:43:09.018Z,21.00
2022-09-01T07:49:28.442Z,21.10
2022-09-01T07:51:51.792Z,21.17
2022-09-01T07:54:21.278Z,21.25
2022-09-01T07:56:50.338Z,21.37
2022-09-01T07:59:18.394Z,21.49
2022-09-01T08:01:53.307Z,21.59
2022-09-01T08:04:23.208Z,21.66
2022-09-01T08:06:50.705Z,21.83
2022-09-01T08:09:32.772Z,21.89
2022-09-01T08:12:07.458Z,21.87
2022-09-01T08:14:38.657Z,21.89
2022-09-01T08:19:56.271Z,22.07
2022-09-01T08:22:43.064Z,22.13
2022-09-01T08:25:44.032Z,22.10
2022-09-01T08:28:12.713Z,22.18
2022-09-01T08:30:52.051Z,22.33
2022-09-01T08:33:21.830Z,22.49
2022-09-01T08:35:49.607Z,22.62
2022-09-01T08:38:18.496Z,22.75
2022-09-01T08:40:56.097Z,22.80
2022-09-01T08:43:34.193Z,22.91
2022-09-01T08:46:14.379Z,23.00
2022-09-01T08:51:48.622Z,23.18
2022-09-01T08:54:29.774Z,23.25
2022-09-01T08:57:02.474Z,23.29
2022-09-01T08:59:49.503Z,23.39
2022-09-01T09:02:51.559Z,23.46
2022-09-01T09:05:56.697Z,23.52
2022-09-01T09:08:43.697Z,23.58
2022-09-01T09:11:38.842Z,23.56
2022-09-01T09:14:11.387Z,23.59
2022-09-01T09:16:43.882Z,23.66
2022-09-01T09:19:25.379Z,23.77
2022-09-01T09:21:54.958Z,23.86
2022-09-01T09:24:37.076Z,23.95
2022-09-01T09:27:07.102Z,24.07
2022-09-01T09:29:36.747Z,24.17
2022-09-01T09:32:06.673Z,24.23
2022-09-01T09:34:35.172Z,24.30
2022-09-01T09:37:23.376Z,24.37
2022-09-01T09:40:02.742Z,24.44
2022-09-01T09:42:35.076Z,24.54
2022-09-01T09:45:04.368Z,24.51
2022-09-01T09:47:44.650Z,24.55
2022-09-01T09:50:29.634Z,24.64
2022-09-01T09:53:36.899Z,24.69
2022-09-01T09:56:15.566Z,24.75
2022-09-01T09:58:44.006Z,24.81
2022-09-01T10:01:19.736Z,24.67
2022-09-01T10:03:50.439Z,24.73
2022-09-01T10:06:38.598Z,24.89
2022-09-01T10:09:08.360Z,25.04
2022-09-01T10:11:49.566Z,25.16
2022-09-01T10:14:35.945Z,25.22
2022-09-01T10:17:15.952Z,25.11
2022-09-01T10:20:12.310Z,24.86
2022-09-01T10:22:39.788Z,25.02
2022-09-01T10:25:10.382Z,25.10
2022-09-01T10:27:40.470Z,25.03
2022-09-01T10:30:20.425Z,25.16
2022-09-01T10:32:54.894Z,25.18
2022-09-01T10:35:39.703Z,25.25
2022-09-01T10:38:11.937Z,25.36
2022-09-01T10:40:50.082Z,25.21
2022-09-01T10:43:38.057Z,25.29
2022-09-01T10:46:38.579Z,25.31
2022-09-01T10:49:29.660Z,25.54
2022-09-01T10:52:03.325Z,25.73
2022-09-01T10:54:50.931Z,25.95
2022-09-01T10:57:55.862Z,26.04
2022-09-01T11:00:39.845Z,26.09
2022-09-01T11:06:14.890Z,26.00
2022-09-01T11:08:50.819Z,25.95
2022-09-01T11:11:35.520Z,26.02
2022-09-01T11:14:04.286Z,26.19
2022-09-01T11:16:48.067Z,26.32
2022-09-01T11:19:34.987Z,26.38
2022-09-01T11:22:07.658Z,26.45
2022-09-01T11:24:43.012Z,26.45
2022-09-01T11:27:12.145Z,26.50
2022-09-01T11:30:01.201Z,26.64
2022-09-01T11:32:35.345Z,26.77
2022-09-01T11:35:20.077Z,26.85
2022-09-01T11:37:51.381Z,26.84
2022-09-01T11:40:32.510Z,26.82
2022-09-01T11:43:05.501Z,26.78
2022-09-01T11:45:34.463Z,26.80
2022-09-01T11:48:07.147Z,26.87
2022-09-01T11:50:43.115Z,26.94
2022-09-01T11:53:24.475Z,26.97
2022-09-01T11:55:54.798Z,27.02
2022-09-01T11:58:34.443Z,27.16
2022-09-01T12:01:24.210Z,27.10
2022-09-01T12:03:53.466Z,27.07
2022-09-01T12:06:26.477Z,27.16
2022-09-01T12:09:02.307Z,27.20
2022-09-01T12:11:31.863Z,27.27
2022-09-01T12:14:07.660Z,27.37
2022-09-01T12:16:40.159Z,27.39
2022-09-01T12:19:06.964Z,27.45
2022-09-01T12:21:42.963Z,27.49
2022-09-01T12:24:21.994Z,27.60
2022-09-01T12:26:51.404Z,27.57
2022-09-01T12:29:18.321Z,27.38
2022-09-01T12:31:48.287Z,27.40
2022-09-01T12:34:28.406Z,27.57
2022-09-01T12:37:04.313Z,27.68
2022-09-01T12:39:37.518Z,27.64
2022-09-01T12:42:04.559Z,27.64
2022-09-01T12:44:37.211Z,27.51
2022-09-01T12:47:07.631Z,27.53
2022-09-01T12:49:49.972Z,27.57
2022-09-01T12:52:19.971Z,27.46
2022-09-01T12:54:48.773Z,27.37
2022-09-01T12:57:28.681Z,27.48
2022-09-01T13:00:11.371Z,27.64
2022-09-01T13:02:46.558Z,27.76
2022-09-01T13:05:40.902Z,27.88
2022-09-01T13:08:11.813Z,28.01
2022-09-01T13:10:43.449Z,28.08
2022-09-01T13:13:12.510Z,28.10
2022-09-01T13:15:48.199Z,28.28
2022-09-01T13:18:19.282Z,28.43
2022-09-01T13:20:46.237Z,28.54
2022-09-01T13:23:13.299Z,28.65
2022-09-01T13:25:40.857Z,28.66
2022-09-01T13:28:07.871Z,28.58
2022-09-01T13:30:35.213Z,28.54
2022-09-01T13:35:49.945Z,28.37
2022-09-01T13:38:19.983Z,28.27
2022-09-01T13:40:49.119Z,28.34
2022-09-01T13:43:18.206Z,28.41
2022-09-01T13:45:45.652Z,28.47
2022-09-01T13:48:16.641Z,28.49
2022-09-01T13:53:32.393Z,28.46
2022-09-01T13:55:59.165Z,28.53
2022-09-01T13:58:25.924Z,28.61
2022-09-01T14:00:53.901Z,28.59
2022-09-01T14:03:23.228Z,28.51
2022-09-01T14:05:50.654Z,28.37
2022-09-01T14:08:19.742Z,28.25
2022-09-01T14:10:49.041Z,28.27
2022-09-01T14:13:16.106Z,28.33
2022-09-01T14:15:42.957Z,28.43
2022-09-01T14:18:10.158Z,28.64
2022-09-01T14:20:41.090Z,28.72
2022-09-01T14:23:10.495Z,28.69
2022-09-01T14:25:41.661Z,28.67
2022-09-01T14:28:08.458Z,28.65
2022-09-01T14:30:35.236Z,28.68
2022-09-01T14:33:06.224Z,28.73
2022-09-01T14:35:33.744Z,28.87
2022-09-01T14:38:02.711Z,28.89
2022-09-01T14:40:30.156Z,28.96
2022-09-01T14:42:57.299Z,29.07
2022-09-01T14:45:27.146Z,29.14
2022-09-01T14:47:56.020Z,29.23
2022-09-01T14:50:24.004Z,29.29
2022-09-01T14:52:55.843Z,29.21
2022-09-01T14:55:24.873Z,29.29
2022-09-01T14:57:52.462Z,29.43
2022-09-01T15:00:20.150Z,29.40
2022-09-01T15:02:47.485Z,29.48
2022-09-01T15:05:14.965Z,29.64
2022-09-01T15:07:42.858Z,29.79
2022-09-01T15:10:11.238Z,29.86
2022-09-01T15:12:43.308Z,30.02
2022-09-01T15:15:10.424Z,29.96
2022-09-01T15:17:37.226Z,29.67
2022-09-01T15:20:28.423Z,29.38
2022-09-01T15:22:56.524Z,29.60
2022-09-01T15:25:53.719Z,29.80
2022-09-01T15:28:21.165Z,30.12
2022-09-01T15:30:48.493Z,30.24
2022-09-01T15:33:16.412Z,30.91
2022-09-01T15:35:44.827Z,31.35
2022-09-01T15:38:16.225Z,31.04
2022-09-01T15:40:51.977Z,30.62
2022-09-01T15:43:26.361Z,32.46
2022-09-01T15:45:53.083Z,40.23
2022-09-01T15:48:19.774Z,46.77
2022-09-01T15:50:46.570Z,51.52
2022-09-01T15:53:13.456Z,52.32
2022-09-01T15:55:48.018Z,53.63
2022-09-01T16:01:09.651Z,51.20
2022-09-01T16:03:36.578Z,54.81
2022-09-01T16:06:03.535Z,56.79
2022-09-01T16:08:36.559Z,58.15
2022-09-01T16:11:10.003Z,59.10
2022-09-01T16:13:40.988Z,59.47
2022-09-01T16:16:10.644Z,57.80
2022-09-01T16:19:42.966Z,52.73
2022-09-01T16:22:23.054Z,54.70
2022-09-01T16:24:52.755Z,52.34
2022-09-01T16:27:25.286Z,48.72
2022-09-01T16:29:56.799Z,50.18
2022-09-01T16:32:24.013Z,52.81
2022-09-01T16:34:52.238Z,53.85
2022-09-01T16:37:46.996Z,55.90
2022-09-01T16:40:35.128Z,56.77
2022-09-01T16:43:20.209Z,57.13
2022-09-01T16:46:14.882Z,57.03
2022-09-01T16:49:29.160Z,56.84
2022-09-01T16:52:01.984Z,56.61
2022-09-01T16:54:59.898Z,56.13
2022-09-01T16:57:45.559Z,55.25
2022-09-01T17:00:14.107Z,53.82
2022-09-01T17:03:02.499Z,51.45
2022-09-01T17:05:40.962Z,45.47
2022-09-01T17:08:19.626Z,41.31
2022-09-01T17:10:55.037Z,38.28
2022-09-01T17:13:28.273Z,36.09
2022-09-01T17:16:16.545Z,34.30
2022-09-01T17:18:50.260Z,33.22
2022-09-01T17:21:23.223Z,32.35
2022-09-01T17:24:12.333Z,31.56
2022-09-01T17:26:42.526Z,31.04
2022-09-01T17:29:24.400Z,30.58
2022-09-01T17:32:10.621Z,30.24
2022-09-01T17:34:53.836Z,29.72
2022-09-01T17:37:46.507Z,29.40
2022-09-01T17:40:23.478Z,28.99
2022-09-01T17:42:55.712Z,28.65
2022-09-01T17:45:39.713Z,28.36
2022-09-01T17:48:07.930Z,28.12
2022-09-01T17:53:53.499Z,27.58
2022-09-01T17:56:43.746Z,27.30
2022-09-01T17:59:20.901Z,27.01
2022-09-01T18:02:07.142Z,26.65
2022-09-01T18:04:43.230Z,26.27
2022-09-01T18:07:30.158Z,25.92
2022-09-01T18:10:00.526Z,25.63
2022-09-01T18:12:29.775Z,25.29
2022-09-01T18:15:16.299Z,25.04
2022-09-01T18:17:56.335Z,24.73
2022-09-01T18:20:31.359Z,24.48
2022-09-01T18:23:08.865Z,24.30
2022-09-01T18:25:38.716Z,24.12
2022-09-01T18:28:05.535Z,24.01
2022-09-01T18:30:54.958Z,23.83
2022-09-01T18:33:52.761Z,23.50
2022-09-01T18:36:34.603Z,23.29
2022-09-01T18:40:00.081Z,23.01
2022-09-01T18:42:57.878Z,22.97
2022-09-01T18:45:42.574Z,22.87
2022-09-01T18:48:48.547Z,22.69
2022-09-01T18:51:29.845Z,22.55
2022-09-01T18:54:11.401Z,22.38
2022-09-01T18:56:41.758Z,22.29
2022-09-01T18:59:23.809Z,22.25
2022-09-01T19:02:20.556Z,22.22
2022-09-01T19:04:59.622Z,22.16
2022-09-01T19:07:45.269Z,22.05
2022-09-01T19:10:26.154Z,21.93
2022-09-01T19:12:55.502Z,21.90
2022-09-01T19:15:35.267Z,21.85
2022-09-01T19:18:30.435Z,21.81
2022-09-01T19:21:01.602Z,21.69
2022-09-01T19:23:49.743Z,21.60
2022-09-01T19:26:21.442Z,21.53
2022-09-01T19:29:09.338Z,21.48
2022-09-01T19:31:57.596Z,21.44
2022-09-01T19:34:31.413Z,21.34
2022-09-01T19:37:01.113Z,21.23
2022-09-01T19:39:37.837Z,21.18
2022-09-01T19:42:17.297Z,21.11
2022-09-01T19:45:05.152Z,21.05
2022-09-01T19:48:00.292Z,20.91
2022-09-01T19:50:32.042Z,20.71
2022-09-01T19:53:27.425Z,20.62
2022-09-01T19:56:13.347Z,20.57
2022-09-01T19:58:46.542Z,20.54
2022-09-01T20:01:17.636Z,20.41
2022-09-01T20:03:51.463Z,20.42
2022-09-01T20:06:32.187Z,20.44
2022-09-01T20:09:07.838Z,20.39
2022-09-01T20:11:53.761Z,20.30
2022-09-01T20:14:29.825Z,20.23
2022-09-01T20:17:01.622Z,20.19
2022-09-01T20:19:37.500Z,20.19
2022-09-01T20:22:31.191Z,20.13
2022-09-01T20:25:10.215Z,20.07
2022-09-01T20:27:43.223Z,20.04
2022-09-01T20:30:16.080Z,20.02
2022-09-01T20:32:51.861Z,19.97
2022-09-01T20:35:27.771Z,19.92
2022-09-01T20:38:29.786Z,19.86
2022-09-01T20:40:57.162Z,19.68
2022-09-01T20:43:32.258Z,19.60
2022-09-01T20:45:59.267Z,19.53
2022-09-01T20:48:27.209Z,19.41
2022-09-01T20:51:07.778Z,19.40
2022-09-01T20:53:52.851Z,19.28
2022-09-01T20:57:00.719Z,19.30
2022-09-01T20:59:48.921Z,19.29
2022-09-01T21:02:45.276Z,19.13
2022-09-01T21:05:48.654Z,19.06
2022-09-01T21:08:48.901Z,19.05
2022-09-01T21:11:33.355Z,19.05
2022-09-01T21:14:09.059Z,19.02
2022-09-01T21:17:13.652Z,19.03
2022-09-01T21:20:02.801Z,19.04
2022-09-01T21:22:29.854Z,18.94
2022-09-01T21:24:56.787Z,18.88
2022-09-01T21:27:26.956Z,18.88
2022-09-01T21:30:09.561Z,18.90
2022-09-01T21:32:37.069Z,18.88
2022-09-01T21:35:06.142Z,18.84
2022-09-01T21:37:32.857Z,18.87
2022-09-01T21:39:59.559Z,18.87
2022-09-01T21:42:30.710Z,18.81
2022-09-01T21:44:58.429Z,18.67
2022-09-01T21:47:26.091Z,18.63
2022-09-01T21:49:52.794Z,18.57
2022-09-01T21:52:19.678Z,18.54
2022-09-01T21:54:46.651Z,18.51
2022-09-01T21:57:13.382Z,18.56
2022-09-01T21:59:40.097Z,18.56
2022-09-01T22:02:10.126Z,18.55
2022-09-01T22:04:38.271Z,18.45
2022-09-01T22:07:06.640Z,18.39
2022-09-01T22:09:33.637Z,18.38
2022-09-01T22:12:00.339Z,18.43
2022-09-01T22:14:27.899Z,18.44
2022-09-01T22:16:54.823Z,18.45
2022-09-01T22:19:21.674Z,18.44
2022-09-01T22:21:48.731Z,18.45
2022-09-01T22:24:19.095Z,18.44
2022-09-01T22:26:48.060Z,18.38
2022-09-01T22:29:15.026Z,18.30
2022-09-01T22:31:41.740Z,18.16
2022-09-01T22:34:08.447Z,18.16
2022-09-01T22:36:40.850Z,18.10
2022-09-01T22:39:09.105Z,18.05
2022-09-01T22:41:36.217Z,17.93
2022-09-01T22:44:03.777Z,17.95
2022-09-01T22:46:31.626Z,17.93
2022-09-01T22:48:59.894Z,17.88
2022-09-01T22:51:27.009Z,17.92
2022-09-01T22:53:54.605Z,17.93
2022-09-01T22:56:25.554Z,17.93
2022-09-01T22:58:54.318Z,17.98
2022-09-01T23:01:24.866Z,17.91
2022-09-01T23:03:52.146Z,17.86
2022-09-01T23:06:27.966Z,17.80
2022-09-01T23:09:00.704Z,17.75
2022-09-01T23:11:27.975Z,17.74
2022-09-01T23:13:55.749Z,17.69
2022-09-01T23:16:25.091Z,17.69
2022-09-01T23:18:53.310Z,17.69
2022-09-01T23:21:23.237Z,17.66
2022-09-01T23:23:58.221Z,17.63
2022-09-01T23:26:28.112Z,17.62
2022-09-01T23:28:55.291Z,17.59
2022-09-01T23:31:30.362Z,17.56
2022-09-01T23:33:58.143Z,17.50
2022-09-01T23:36:27.858Z,17.44
2022-09-01T23:38:55.371Z,17.42
2022-09-01T23:41:30.957Z,17.36
2022-09-01T23:44:01.256Z,17.42
2022-09-01T23:46:31.403Z,17.40
2022-09-01T23:48:58.249Z,17.38
2022-09-01T23:51:25.635Z,17.35
2022-09-01T23:53:53.480Z,17.36
2022-09-01T23:56:23.874Z,17.31
2022-09-01T23:58:50.762Z,17.42
